Latest Weather Observations for Strahan

IDT60801

Issued at 8:41 am EDT Wednesday 7 December 2022 (issued every 10 minutes, with the page automatically refreshed every 10 minutes)

About weather observations | Map of weather stations | Latest weather observations for TAS | Other Formats
Station Details ID: 097072 Name: STRAHAN AERODROME Lat: -42.16 Lon: 145.29 Height: 21.0 m
Data from the previous 72 hours. | See also: Recent months at Strahan
Date/Time
EDT
Temp
°C
App
Temp
°C
Dew
Point
°C
Rel
Hum
%
Delta-T
°C
Wind Press
QNH
hPa
Press
MSL
hPa
Rain since
9am
mm
Dir  Spd
km/h
Gust
km/h
Spd
kts
Gust
kts
07/08:30am 13.6 10.4 10.0 79 1.9 NW 17 22 9 12 1002.5 1002.5 0.0
07/08:00am 12.0 9.8 9.4 84 1.3 N 11 15 6 8 1002.6 1002.6 0.0
07/07:30am 10.6 7.8 8.7 88 0.9 N 13 17 7 9 1002.6 1002.6 0.0
07/07:00am 9.2 6.2 7.6 90 0.8 NNE 13 17 7 9 1002.5 1002.5 0.0
07/06:30am 9.0 5.5 7.3 89 0.8 NNE 15 17 8 9 1002.6 1002.6 0.0
07/06:00am 8.0 4.4 6.6 91 0.6 NNE 15 17 8 9 1002.6 1002.6 0.0
07/05:30am 8.2 4.6 6.7 90 0.7 NNE 15 19 8 10 1002.6 1002.6 0.0
07/05:00am 7.9 4.2 6.5 91 0.6 NNE 15 17 8 9 1002.6 1002.6 0.0
07/04:30am 8.5 4.9 6.8 89 0.8 NNE 15 19 8 10 1002.7 1002.7 0.0
07/04:00am 8.4 5.2 6.9 90 0.7 NNE 13 17 7 9 1002.8 1002.8 0.0
07/03:30am 8.7 5.1 6.8 88 0.9 NNE 15 17 8 9 1003.1 1003.1 0.0
07/03:00am 8.9 5.3 6.9 87 0.9 NNE 15 19 8 10 1003.4 1003.4 0.0
07/02:30am 8.7 5.5 6.7 87 0.9 NNE 13 15 7 8 1003.6 1003.6 0.0
07/02:00am 9.0 5.4 6.6 85 1.1 NNE 15 17 8 9 1004.1 1004.1 0.0
07/01:30am 8.8 6.4 7.1 89 0.8 N 9 13 5 7 1004.4 1004.4 0.0
07/01:00am 9.2 6.5 7.5 89 0.8 N 11 13 6 7 1004.8 1004.8 0.0
07/12:30am 9.8 7.7 8.1 89 0.8 N 9 13 5 7 1005.1 1005.1 0.0
07/12:00am 10.0 7.2 8.6 91 0.7 N 13 15 7 8 1005.5 1005.5 0.0
 
Date/Time
EDT
Temp
°C
App
Temp
°C
Dew
Point
°C
Rel
Hum
%
Delta-T
°C
Wind Press
QNH
hPa
Press
MSL
hPa
Rain since
9am
mm
Dir  Spd
km/h
Gust
km/h
Spd
kts
Gust
kts
06/11:30pm 10.7 8.1 9.3 91 0.7 N 13 15 7 8 1005.8 1005.8 0.0
06/11:00pm 10.4 8.0 8.8 90 0.8 N 11 15 6 8 1006.0 1006.0 0.0
06/10:30pm 10.6 7.9 9.0 90 0.8 NNE 13 15 7 8 1006.2 1006.2 0.0
06/10:00pm 11.3 8.5 8.7 84 1.3 NNE 13 15 7 8 1006.3 1006.3 0.0
06/09:30pm 11.9 10.5 8.9 82 1.5 NNW 6 11 3 6 1006.3 1006.3 0.0
06/09:00pm 12.9 10.6 9.0 77 2.0 W 11 13 6 7 1006.3 1006.3 0.0
06/08:30pm 14.1 11.8 7.6 65 3.2 WNW 9 11 5 6 1006.4 1006.4 0.0
06/08:00pm 16.1 14.1 7.3 56 4.4 W 7 11 4 6 1006.6 1006.6 0.0
06/07:30pm 16.6 13.7 8.1 57 4.3 S 13 20 7 11 1006.5 1006.5 0.0
06/07:00pm 16.5 12.4 7.7 56 4.4 S 19 28 10 15 1006.7 1006.7 0.0
06/06:30pm 16.4 9.7 7.3 55 4.5 SSW 32 43 17 23 1006.6 1006.6 0.0
06/06:00pm 16.8 10.3 8.0 56 4.5 SSW 32 41 17 22 1006.9 1006.9 0.0
06/05:30pm 17.4 11.2 7.7 53 4.9 SW 30 39 16 21 1007.0 1007.0 0.0
06/05:00pm 18.1 11.8 7.2 49 5.5 SW 30 41 16 22 1007.2 1007.2 0.0
06/04:30pm 19.0 12.4 7.8 48 5.7 SSW 32 43 17 23 1007.5 1007.5 0.0
06/04:00pm 19.2 12.9 7.6 47 5.9 SW 30 37 16 20 1007.7 1007.7 0.0
06/03:30pm 19.2 13.2 7.0 45 6.2 SW 28 35 15 19 1008.0 1008.0 0.0
06/03:00pm 19.9 14.3 7.3 44 6.4 SW 26 37 14 20 1008.3 1008.3 0.0
06/02:30pm 19.8 15.0 7.2 44 6.4 S 22 32 12 17 1008.7 1008.7 0.0
06/02:00pm 19.3 13.6 5.0 39 7.0 S 24 30 13 16 1009.2 1009.2 0.0
06/01:30pm 18.7 12.8 3.7 37 7.1 S 24 33 13 18 1009.7 1009.7 0.0
06/01:00pm 19.3 14.1 5.7 41 6.7 S 22 33 12 18 1010.1 1010.1 0.0
06/12:30pm 17.5 11.1 3.4 39 6.5 S 26 37 14 20 1010.6 1010.6 0.0
06/12:00pm 17.2 10.6 4.2 42 6.1 S 28 35 15 19 1010.9 1010.9 0.0
06/11:30am 16.5 10.0 4.9 46 5.5 S 28 35 15 19 1011.6 1011.6 0.0
06/11:00am 16.2 9.6 4.3 45 5.6 S 28 37 15 20 1012.0 1012.0 0.0
06/10:30am 15.1 8.9 4.2 48 5.0 SSE 26 37 14 20 1012.4 1012.4 0.0
06/10:00am 14.7 8.5 4.4 50 4.8 SSE 26 37 14 20 1012.8 1012.8 0.0
06/09:30am 14.1 7.6 4.7 53 4.4 SSE 28 39 15 21 1013.4 1013.4 0.0
06/09:00am 13.2 7.3 4.1 54 4.1 SSE 24 32 13 17 1013.9 1013.9 0.0
06/08:30am 12.6 6.9 5.1 60 3.5 SE 24 32 13 17 1014.1 1014.1 0.0
06/08:00am 11.4 5.9 4.2 61 3.2 SE 22 30 12 16 1014.3 1014.3 0.0
06/07:30am 10.8 5.5 4.9 67 2.7 SE 22 30 12 16 1014.3 1014.3 0.0
06/07:00am 10.3 5.6 5.3 71 2.3 SE 19 24 10 13 1014.3 1014.3 0.0
06/06:30am 8.4 5.0 4.2 75 1.8 ESE 11 20 6 11 1014.3 1014.3 0.0
06/06:00am 7.2 2.7 4.2 81 1.3 ESE 17 24 9 13 1014.1 1014.1 0.0
06/05:30am 5.8 3.5 3.0 82 1.2 ENE 4 9 2 5 1014.0 1014.0 0.0
06/05:00am 7.4 2.9 4.0 79 1.5 ESE 17 24 9 13 1013.8 1013.8 0.0
06/04:30am 6.3 2.3 3.1 80 1.3 ESE 13 17 7 9 1013.9 1013.9 0.0
06/04:00am 5.9 1.6 3.1 82 1.2 ESE 15 17 8 9 1014.0 1014.0 0.0
06/03:30am 6.6 2.3 3.2 79 1.4 SE 15 17 8 9 1014.3 1014.3 0.0
06/03:00am 7.0 2.7 3.3 77 1.6 SE 15 17 8 9 1014.4 1014.4 0.0
06/02:30am 8.1 2.9 3.8 74 1.9 SE 20 26 11 14 1014.4 1014.4 0.0
06/02:00am 8.5 3.6 4.9 78 1.6 SE 20 28 11 15 1014.7 1014.7 0.0
06/01:30am 8.8 3.9 5.2 78 1.6 SE 20 28 11 15 1014.8 1014.8 0.0
06/01:00am 9.3 3.7 5.3 76 1.8 SE 24 32 13 17 1015.0 1015.0 0.0
06/12:30am 9.6 3.9 4.8 72 2.1 SE 24 33 13 18 1015.2 1015.2 0.0
06/12:00am 10.1 4.5 5.3 72 2.2 SE 24 35 13 19 1015.4 1015.4 0.0
 
Date/Time
EDT
Temp
°C
App
Temp
°C
Dew
Point
°C
Rel
Hum
%
Delta-T
°C
Wind Press
QNH
hPa
Press
MSL
hPa
Rain since
9am
mm
Dir  Spd
km/h
Gust
km/h
Spd
kts
Gust
kts
05/11:30pm 10.6 3.4 5.2 69 2.5 SE 32 41 17 22 1015.3 1015.3 0.0
05/11:00pm 10.9 3.8 5.4 69 2.5 SE 32 44 17 24 1015.2 1015.2 0.0
05/10:30pm 11.2 4.4 5.3 67 2.7 SSE 30 43 16 23 1015.0 1015.0 0.0
05/10:00pm 11.6 4.4 5.0 64 3.0 SSE 32 41 17 22 1014.9 1014.9 0.0
05/09:30pm 11.9 4.8 5.3 64 3.0 SSE 32 44 17 24 1014.6 1014.6 0.0
05/09:00pm 12.5 5.4 5.4 62 3.3 SSE 32 44 17 24 1014.2 1014.2 0.0
05/08:30pm 13.2 6.0 4.9 57 3.8 SSE 32 43 17 23 1013.8 1013.8 0.0
05/08:00pm 13.7 8.4 7.0 64 3.3 S 24 33 13 18 1013.4 1013.4 0.0
05/07:30pm 14.4 8.5 7.7 64 3.3 S 28 41 15 22 1013.0 1013.0 0.0
05/07:00pm 15.1 8.4 7.2 59 3.9 S 32 46 17 25 1012.5 1012.5 0.0
05/06:30pm 15.6 8.2 6.9 56 4.3 S 35 48 19 26 1012.1 1012.1 0.0
05/06:00pm 16.2 9.2 8.4 60 4.0 S 35 52 19 28 1011.8 1011.8 0.0
05/05:43pm 16.8 10.7 8.2 57 4.4 S 30 50 16 27 1011.6 1011.6 0.0
05/05:30pm 16.9 9.3 9.1 60 4.0 SSW 39 54 21 29 1011.6 1011.6 0.0
05/05:21pm 17.0 10.4 8.4 57 4.4 S 33 54 18 29 1011.5 1011.5 0.0
05/05:00pm 18.0 12.4 8.8 55 4.8 SSE 28 43 15 23 1011.6 1011.6 0.0
05/04:30pm 18.0 11.3 9.6 58 4.4 SSE 35 50 19 27 1011.6 1011.6 0.0
05/04:00pm 17.3 10.4 8.7 57 4.4 SSE 35 48 19 26 1011.5 1011.5 0.0
05/03:51pm 17.5 10.4 9.7 60 4.1 SSE 37 56 20 30 1011.5 1011.5 0.0
05/03:30pm 17.2 10.6 9.9 62 3.8 SSE 35 50 19 27 1011.4 1011.4 0.0
05/03:09pm 17.2 11.1 9.9 62 3.8 SSE 32 50 17 27 1011.4 1011.4 0.0
05/03:00pm 16.6 10.2 9.5 63 3.7 SSE 33 46 18 25 1011.4 1011.4 0.0
05/02:30pm 17.5 10.9 10.1 62 3.9 SSE 35 54 19 29 1011.2 1011.2 0.0
05/02:24pm 18.6 12.0 9.9 57 4.6 SSE 35 54 19 29 1011.0 1011.0 0.0
05/02:00pm 19.1 12.7 10.6 58 4.6 SSE 35 48 19 26 1011.0 1011.0 0.0
05/01:30pm 18.6 11.6 9.9 57 4.6 SSE 37 52 20 28 1010.9 1010.9 0.0
05/01:07pm 18.5 11.4 9.6 56 4.7 SSE 37 56 20 30 1010.9 1010.9 0.0
05/01:00pm 18.4 11.5 10.3 59 4.3 SSE 37 52 20 28 1010.9 1010.9 0.0
05/12:45pm 18.0 11.2 9.4 57 4.5 SSE 35 54 19 29 1010.8 1010.8 0.0
05/12:30pm 16.8 9.2 9.2 61 3.9 SSE 39 54 21 29 1010.8 1010.8 0.0
05/12:00pm 17.1 9.9 9.0 59 4.2 SSE 37 54 20 29 1010.4 1010.4 0.0
05/11:30am 16.0 9.1 9.0 63 3.6 SSE 35 50 19 27 1010.3 1010.3 0.0
05/11:12am 15.5 7.3 8.3 62 3.6 SSE 41 61 22 33 1010.2 1010.2 0.0
05/11:00am 15.8 7.4 9.0 64 3.5 SSE 43 57 23 31 1010.0 1010.0 0.0
05/10:30am 15.4 7.6 9.7 69 3.0 SSE 41 56 22 30 1009.7 1009.7 0.0
05/10:03am 15.0 8.5 10.2 73 2.5 SSE 35 54 19 29 1009.4 1009.4 0.0
05/10:00am 15.1 8.6 10.3 73 2.5 SSE 35 52 19 28 1009.4 1009.4 0.0
05/09:30am 15.5 8.5 9.8 69 3.0 SSE 37 50 20 27 1009.0 1009.0 0.0
05/09:08am 15.5 9.0 10.3 71 2.7 SSE 35 54 19 29 1008.7 1008.7 0.0
05/09:00am 15.5 9.1 10.7 73 2.5 SSE 35 50 19 27 1008.6 1008.6 0.0
05/08:30am 15.2 9.1 10.4 73 2.5 SSE 33 48 18 26 1008.2 1008.2 0.0
05/08:00am 14.7 9.0 9.9 73 2.5 SSE 30 44 16 24 1007.9 1007.9 0.0
05/07:30am 14.6 8.1 10.2 75 2.3 SSE 35 52 19 28 1007.4 1007.4 0.0
05/07:22am 14.5 8.5 10.1 75 2.3 SSE 32 52 17 28 1007.3 1007.3 0.0
05/07:00am 14.4 7.9 10.4 77 2.1 SSE 35 52 19 28 1006.9 1006.9 0.0
05/06:51am 14.3 8.3 10.7 79 1.9 SSE 33 52 18 28 1006.9 1006.9 0.0
05/06:38am 14.4 8.5 11.2 81 1.7 SSE 33 46 18 25 1006.6 1006.6 0.0
05/06:30am 14.5 8.9 11.5 82 1.6 SSE 32 46 17 25 1006.4 1006.4 0.0
05/06:00am 14.4 9.7 11.9 85 1.4 S 28 39 15 21 1006.0 1006.0 0.0
05/05:30am 14.3 10.8 12.3 88 1.1 S 22 32 12 17 1005.7 1005.7 0.0
05/05:00am 14.2 11.7 12.4 89 1.0 SSW 17 22 9 12 1005.2 1005.2 0.0
05/04:30am 14.3 11.9 12.5 89 1.0 SSE 17 24 9 13 1005.0 1005.0 0.0
05/04:00am 14.1 11.7 12.7 91 0.8 SE 17 24 9 13 1004.6 1004.6 0.0
05/03:30am 14.0 11.3 12.9 93 0.6 SE 19 26 10 14 1004.7 1004.7 0.0
05/03:24am 13.9 11.6 13.0 94 0.5 SE 17 26 9 14 1004.8 1004.8 0.0
05/03:17am 13.8 11.5 12.9 94 0.5 SE 17 24 9 13 1004.9 1004.9 0.0
05/03:00am 13.5 12.7 12.9 96 0.3 ESE 9 15 5 8 1004.9 1004.9 0.0
05/02:30am 13.0 13.0 12.4 96 0.3 E 4 9 2 5 1004.7 1004.7 0.0
05/02:00am 12.7 11.6 12.1 96 0.3 N 9 11 5 6 1004.7 1004.7 0.0
05/01:53am 12.7 12.0 12.1 96 0.3 NNE 7 9 4 5 1004.9 1004.9 0.0
05/01:30am 13.4 12.2 12.8 96 0.3 SSW 11 13 6 7 1004.7 1004.7 0.0
05/01:00am 13.4 11.8 12.8 96 0.3 S 13 17 7 9 1005.1 1005.1 0.0
05/12:55am 13.1 11.8 12.5 96 0.3 S 11 17 6 9 1005.2 1005.2 0.0
05/12:30am 12.7 12.0 11.9 95 0.4 WSW 7 11 4 6 1005.4 1005.4 0.0
05/12:25am 12.5 11.3 11.6 94 0.5 WNW 9 11 5 6 1005.4 1005.4 0.0
05/12:18am 13.5 12.3 12.7 95 0.4 N 11 13 6 7 1005.3 1005.3 0.0
05/12:00am 13.4 14.2 12.6 95 0.4 CALM 0 9 0 5 1005.2 1005.2 0.0
 
Date/Time
EDT
Temp
°C
App
Temp
°C
Dew
Point
°C
Rel
Hum
%
Delta-T
°C
Wind Press
QNH
hPa
Press
MSL
hPa
Rain since
9am
mm
Dir  Spd
km/h
Gust
km/h
Spd
kts
Gust
kts
04/11:30pm 13.5 12.6 12.6 94 0.5 NNW 9 13 5 7 1005.5 1005.5 0.0
04/11:08pm 13.8 11.9 12.9 94 0.5 NW 15 15 8 8 1005.4 1005.4 0.0
04/11:00pm 13.6 11.9 12.5 93 0.6 NW 13 15 7 8 1005.4 1005.4 0.0
04/10:30pm 13.9 13.4 12.5 91 0.8 N 7 9 4 5 1005.2 1005.2 0.0
04/10:00pm 14.9 15.8 12.9 88 1.1 CALM 0 7 0 4 1005.4 1005.4 0.0
04/09:30pm 15.3 14.5 13.0 86 1.3 S 9 13 5 7 1005.4 1005.4 0.0
04/09:00pm 16.5 15.2 13.8 84 1.5 WNW 13 17 7 9 1005.1 1005.1 0.0
04/08:30pm 17.7 17.7 14.2 80 2.0 NW 7 11 4 6 1004.5 1004.5 0.0
04/08:00pm 18.8 20.1 14.1 74 2.7 CALM 0 0 0 0 1004.4 1004.4 0.0
04/07:30pm 19.0 19.0 13.6 71 3.1 NW 6 7 3 4 1004.6 1004.6 0.0
04/07:00pm 19.9 19.2 13.1 65 3.9 WSW 9 13 5 7 1004.6 1004.6 0.0
04/06:30pm 20.5 19.2 11.4 56 5.0 S 9 11 5 6 1004.5 1004.5 0.0
04/06:00pm 21.1 18.6 8.4 44 6.7 S 11 15 6 8 1004.3 1004.3 0.0
04/05:30pm 21.7 20.0 9.9 47 6.4 SSE 9 13 5 7 1004.6 1004.6 0.0
04/05:00pm 21.1 20.3 11.7 55 5.3 ESE 7 9 4 5 1005.0 1005.0 0.0
04/04:30pm 20.2 18.5 11.1 56 5.0 ESE 11 11 6 6 1005.7 1005.7 0.0
04/04:00pm 20.5 19.4 12.0 58 4.8 SE 9 13 5 7 1006.4 1006.4 0.0
04/03:30pm 20.4 19.3 11.9 58 4.7 S 9 11 5 6 1006.9 1006.9 0.0
04/03:00pm 20.8 18.9 9.1 47 6.2 SSE 9 13 5 7 1007.6 1007.6 0.0
04/02:30pm 21.0 18.6 10.2 50 5.9 SSE 13 17 7 9 1007.9 1007.9 0.0
04/02:00pm 21.8 19.3 9.7 46 6.5 SSE 13 17 7 9 1008.4 1008.4 0.0
04/01:30pm 21.7 19.2 8.2 42 7.1 SSE 11 15 6 8 1008.7 1008.7 0.0
04/01:00pm 20.7 17.7 7.7 43 6.7 S 13 17 7 9 1009.4 1009.4 0.0
04/12:30pm 19.9 17.2 10.3 54 5.2 SSE 15 20 8 11 1009.8 1009.8 0.0
04/12:00pm 18.8 16.8 11.4 62 4.1 SSE 13 19 7 10 1010.2 1010.2 0.0
04/11:30am 18.2 15.8 11.3 64 3.8 S 15 20 8 11 1010.6 1010.6 0.0
04/11:00am 18.4 16.1 11.7 65 3.7 SSE 15 20 8 11 1010.8 1010.8 0.0
04/10:30am 18.0 15.8 10.9 63 3.8 S 13 20 7 11 1011.4 1011.4 0.0
04/10:00am 17.9 16.0 11.9 68 3.3 SSE 13 19 7 10 1011.8 1011.8 0.0
04/09:30am 16.8 15.3 11.9 73 2.7 SE 11 19 6 10 1012.3 1012.3 0.0
04/09:00am 16.5 14.9 11.6 73 2.7 SE 11 15 6 8 1012.5 1012.5 0.0

Other formats

Comma delimited format used in spreadsheet applications
http://www.bom.gov.au/fwo/IDT60801/IDT60801.94956.axf

JavaScript Object Notation format (JSON) in row-major order
http://www.bom.gov.au/fwo/IDT60801/IDT60801.94956.json

Data quality

Most of these data are generated automatically and are frequently updated. Quality checks on data are not normally performed. It is possible for incorrect values to appear. Refer to information at About Latest Weather Observations and please check the disclaimer before using these data.